Ritsu Sakai

Scout - Kashima Antlers
5 Dez 2027
Sonntag
Verarbeitung

Persönlichkeit

Anpassungsfähigkeit (7) Ehrgeiz (17) Kontroverse (12) Loyalität (19) Druck (1) Professionalität (18) Fairness (6) Temperament (14)

Profil

Trainerstil Demokratisch
Lizenz Kontinentale B
Entschlossenheit 7
Menschenführung 13
Motivation 10
Disziplin 5
Arbeitszufriedenheit
100%
Ermüdung
0%
Rolle Scout
Gehalt 36.6K p/W
Vertrag 14.03.2030

Leistung

Verhalten Gut
Trainingseffektivität
41%
Spielerentwicklung
40%
Verletzungsprävention
35%
Taktische Umsetzung
30%

Letzte Ereignisse

Nahm an einer Scouting-Besprechung teil 7T her
Nahm an einer Scouting-Besprechung teil 7T her
Nahm an einer Scouting-Besprechung teil 14T her
Nahm an einer Scouting-Besprechung teil 14T her
Nahm an einer Scouting-Besprechung teil 21T her
Nahm an einer Scouting-Besprechung teil 21T her
Nahm an einer Scouting-Besprechung teil 28T her
Nahm an einer Scouting-Besprechung teil 28T her

Aktuell beobachtet

100
Spieler Verein Status Fähigkeit Vertrauen Beobachtet Zuletzt beobachtet Letzte Stimme
Joel McGregor Swindon Town Aktiv 92 / 94 40% 1 21.07.2027 -
Luther Kekana SuperSport United Aktiv 112 / 98 40% 1 21.07.2027 -
Haissem Hassan Bloemfontein Celtic Aktiv 129 / 126 40% 4 03.01.2027 -
Patrik Wålemark Lech Aktiv 126 / 111 40% 2 03.01.2027 -
Japhet Tanganga Sheffield United Aktiv 138 / 132 40% 1 03.01.2027 -
Juan Bezerra Zamalek Aktiv 120 / 109 40% 1 01.01.2027 -
Tshepang Moremi Orlando Pirates Aktiv 122 / 121 40% 2 31.12.2026 -
Scott Twine Bristol City Aktiv 135 / 124 40% 3 31.12.2026 -
Ethan Galbraith Swansea City Aktiv 121 / 124 40% 1 30.12.2026 -
Sorba Thomas Stoke City Aktiv 134 / 139 40% 1 30.12.2026 -
Amar Memić Viktoria Plzen Aktiv 148 / 118 40% 1 29.12.2026 -
Welington Southampton Aktiv 120 / 133 40% 1 29.12.2026 -
Othmane Maamma Watford Aktiv 131 / 120 40% 1 26.12.2026 -
Tojiro Kubo Kashiwa Reysol Aktiv 133 / 118 40% 3 25.12.2026 -
Relebohile Mofokeng Orlando Pirates Aktiv 125 / 108 40% 2 25.12.2026 Mehr Infos nötig
Issa Kaboré Wrexham Aktiv 139 / 122 40% 2 25.12.2026 -
Dara O'Shea Ipswich Town Aktiv 139 / 131 40% 2 22.12.2026 -
Finn Azaz Southampton Aktiv 121 / 138 40% 1 22.12.2026 -
Mateus Mané Liverpool Aktiv 127 / 146 40% 1 21.12.2026 -
Mohamed Belloumi Hull City Aktiv 133 / 147 40% 1 20.12.2026 -
Oumar Camara Vitoria Guimaraes Aktiv 121 / 123 40% 1 17.12.2026 -
Víctor Guzmán Sporting CP Aktiv 104 / 93 40% 2 15.12.2026 -
Jevan Beattie Harrogate Town Aktiv 90 / 90 40% 1 15.12.2026 -
Felipe Augusto Zenit Aktiv 120 / 122 40% 1 14.12.2026 -
Gustavo Mantuan Zenit Aktiv 139 / 140 40% 1 13.12.2026 -
Cian Ashford Cardiff City Aktiv 113 / 115 40% 1 13.12.2026 -
Oleh Ocheretko Shakhtar Aktiv 130 / 126 40% 2 12.12.2026 -
Aidan Morris Middlesbrough Aktiv 130 / 131 40% 1 11.12.2026 -
Tobias Gulliksen Rapid Wien Aktiv 121 / 125 40% 1 10.12.2026 -
Jack Rudoni Coventry City Aktiv 124 / 122 40% 1 07.12.2026 -
Jhon Jhon Zenit Aktiv 127 / 151 40% 3 06.12.2026 -
Kwadwo Baah Watford Aktiv 119 / 121 40% 1 06.12.2026 -
Peter Federico Gornik Zabrze Aktiv 112 / 141 40% 1 05.12.2026 -
Suleiman Camara Slovan Bratislava Aktiv 110 / 126 40% 1 30.11.2026 -
Sindre Walle Egeli Ipswich Town Aktiv 136 / 128 40% 1 30.11.2026 -
Reda Khadra Qarabag Aktiv 113 / 137 40% 3 26.11.2026 -
Matt O'Riley Blackburn Rovers Aktiv 153 / 132 40% 1 25.11.2026 -
Ilyas Ansah Hull City Aktiv 131 / 123 40% 1 24.11.2026 -
Leon Grgić Sturm Graz Aktiv 119 / 126 40% 2 21.11.2026 -
Jack Currie Oxford United Aktiv 114 / 119 40% 1 20.11.2026 -
Alexander Lyng SonderjyskE Aktiv 123 / 107 40% 1 19.11.2026 -
Will Lankshear Middlesbrough Aktiv 112 / 129 40% 1 19.11.2026 -
Petar Stanić Ludogorets Aktiv 153 / 134 40% 2 17.11.2026 -
Yota Komi Kashiwa Reysol Aktiv 124 / 126 40% 3 15.11.2026 -
Jesus Ferreira Seattle Sounders Aktiv 131 / 137 40% 2 11.11.2026 -
Nikolay Zlatev Cherno More Aktiv 101 / 117 40% 2 11.11.2026 -
Reon Yamahara Kawasaki Frontale Aktiv 131 / 132 40% 1 11.11.2026 -
Arthur Maron São Paulo Aktiv 89 / 97 40% 1 11.11.2026 -
Hirokazu Ishihara FC Tokyo Aktiv 117 / 125 40% 2 10.11.2026 -
Fernando Costanza Krylya Sovetov Aktiv 120 / 122 40% 1 10.11.2026 -
Petter Nosa Dahl Rapid Wien Aktiv 133 / 115 40% 1 08.11.2026 -
Braian Ojeda Orlando City Aktiv 113 / 133 40% 1 06.11.2026 -
Ryuya Nishio Omiya Ardija Aktiv 131 / 139 40% 2 05.11.2026 -
Gabriel Pereira FC Copenhagen Aktiv 112 / 138 40% 1 05.11.2026 -
Dramane Kamagaté USM Alger Aktiv 116 / 96 40% 1 04.11.2026 -
Riku Yamane Yokohama F. Marinos Aktiv 133 / 139 40% 1 02.11.2026 -
Bogdan Petrović TSC Aktiv 113 / 118 40% 1 01.11.2026 -
Asahi Uenaka Gamba Osaka Aktiv 116 / 137 40% 3 30.10.2026 -
Ruben Ramos LA Galaxy Aktiv 84 / 85 40% 1 29.10.2026 -
Kein Sato FC Tokyo Aktiv 140 / 133 40% 2 27.10.2026 -
Miloš Jovičić Zabbar St. Patrick Aktiv 99 / 99 40% 1 23.10.2026 -
Chinedu Onyinjekwu Bayelsa United Aktiv 87 / 90 40% 1 21.10.2026 -
Augustine Nwaorisa Enyimba Aktiv 83 / 104 40% 1 20.10.2026 -
Jeff Ekhator Juventus Aktiv 118 / 122 40% 2 18.10.2026 -
Mateja Bubanj Admira Wacker Aktiv 105 / 97 40% 1 16.10.2026 -
Derik Lacerda Kawasaki Frontale Aktiv 118 / 134 40% 2 15.10.2026 -
Riqui Puig LA Galaxy Aktiv 122 / 125 40% 1 15.10.2026 -
Darren Yapi Colorado Rapids Aktiv 90 / 127 40% 1 14.10.2026 -
Matheus Thuler Vissel Kobe Aktiv 133 / 123 40% 1 14.10.2026 -
Yuta Goke Vissel Kobe Aktiv 131 / 126 40% 2 11.10.2026 -
Jocelin Ta Bi Sunderland Aktiv 103 / 108 40% 2 09.10.2026 -
Maren Kefas Plateau United Aktiv 89 / 73 40% 1 09.10.2026 -
Sebastian Holm Mathisen Sandefjord Aktiv 90 / 107 40% 1 08.10.2026 -
Shuto Nakano Sanfrecce Hiroshima Aktiv 132 / 121 40% 1 07.10.2026 -
Joaquín Pereyra Minnesota United FC Aktiv 131 / 131 40% 1 06.10.2026 -
Archie Goodwin Charlotte Football Club Aktiv 90 / 108 40% 1 30.09.2026 -
Roberto Iliev Slavia Sofia Aktiv 104 / 92 40% 1 30.09.2026 -
Elias Achouri San Diego Football Club Aktiv 147 / 147 40% 3 29.09.2026 -
Daiya Tono Yokohama F. Marinos Aktiv 136 / 132 40% 1 29.09.2026 -
Cheikh Sabaly Vancouver Whitecaps Aktiv 113 / 129 40% 1 25.09.2026 -
Kristian Fletcher FC Cincinnati Aktiv 80 / 105 40% 1 23.09.2026 -
Salko Hamzić Sturm Graz Aktiv 102 / 115 40% 1 19.09.2026 -
Agustín Anello Philadelphia Union Aktiv 122 / 130 40% 1 18.09.2026 -
Elis Bishesari IFK Goteborg Aktiv 112 / 137 40% 2 17.09.2026 -
Donovan Parisian New England Revolution Aktiv 88 / 117 40% 1 17.09.2026 -
Jan Koutný Sigma Olomouc Aktiv 130 / 120 40% 1 16.09.2026 -
Emiliano Zacca Deportivo Riestra Aktiv 90 / 102 40% 2 15.09.2026 -
Andrew Rick Philadelphia Union Aktiv 91 / 120 40% 1 15.09.2026 -
Sota Miura Kawasaki Frontale Aktiv 124 / 106 40% 1 12.09.2026 -
Marcelo Allende Mamelodi Sundowns Aktiv 125 / 135 40% 1 12.09.2026 -
Alex Kouto Horio Pisano Nagoya Grampus Verloren 108 / 126 40% 2 11.09.2026 -
Esequiel Barco Spartak Moscow Aktiv 145 / 122 40% 1 11.09.2026 -
Leonardo Sosa Rosario Central Aktiv 95 / 102 40% 1 08.09.2026 -
Franco Yennerich Talleres Aktiv 85 / 79 40% 1 08.09.2026 -
Shunki Higashi Sanfrecce Hiroshima Aktiv 110 / 107 40% 1 07.09.2026 -
Gonzalo Luján Inter Miami CF Aktiv 132 / 131 40% 1 07.09.2026 -
Íker Blanco Independiente Medellin Aktiv 96 / 81 40% 1 04.09.2026 -
Biola Sabitu Remo Stars Aktiv 81 / 75 40% 1 31.08.2026 -
Dylan Peraić-Cullen Central Coast Mariners Aktiv 80 / 107 40% 1 20.08.2026 -
Fernando Bravo Independiente Rivadavia Aktiv 98 / 89 40% 1 19.08.2026 -